createdAt,value
2022-10-06T00:01:52.021Z,46.88
2022-10-06T00:04:56.739Z,44.14
2022-10-06T00:08:02.193Z,44.88
2022-10-06T00:11:07.774Z,43.44
2022-10-06T00:14:12.322Z,41.73
2022-10-06T00:17:16.896Z,42.09
2022-10-06T00:20:21.781Z,42.11
2022-10-06T00:23:27.495Z,41.70
2022-10-06T00:26:31.991Z,40.57
2022-10-06T00:29:37.818Z,38.56
2022-10-06T00:32:42.619Z,39.76
2022-10-06T00:35:47.337Z,39.02
2022-10-06T00:38:52.171Z,36.63
2022-10-06T00:41:56.914Z,37.01
2022-10-06T00:45:05.815Z,37.33
2022-10-06T00:48:17.319Z,35.95
2022-10-06T00:51:23.148Z,36.16
2022-10-06T00:54:29.261Z,34.05
2022-10-06T00:57:37.785Z,34.56
2022-10-06T01:00:45.516Z,33.52
2022-10-06T01:03:58.331Z,34.02
2022-10-06T01:07:13.283Z,33.37
2022-10-06T01:10:18.004Z,31.57
2022-10-06T01:13:23.042Z,33.10
2022-10-06T01:16:33.265Z,31.87
2022-10-06T01:20:12.426Z,31.82
2022-10-06T01:23:17.914Z,30.68
2022-10-06T01:26:27.800Z,31.51
2022-10-06T01:29:34.981Z,30.38
2022-10-06T01:32:54.662Z,27.44
2022-10-06T01:36:00.531Z,30.94
2022-10-06T01:39:05.990Z,29.77
2022-10-06T01:42:11.930Z,29.30
2022-10-06T01:45:17.224Z,29.31
2022-10-06T01:48:21.855Z,30.17
2022-10-06T01:51:31.768Z,28.01
2022-10-06T01:54:39.824Z,29.68
2022-10-06T01:57:45.309Z,29.68
2022-10-06T02:00:51.799Z,29.85
2022-10-06T02:03:59.253Z,29.69
2022-10-06T02:07:04.762Z,28.44
2022-10-06T02:10:17.410Z,28.66
2022-10-06T02:13:26.666Z,28.17
2022-10-06T02:16:39.280Z,29.92
2022-10-06T02:19:43.986Z,28.56
2022-10-06T02:22:48.480Z,27.91
2022-10-06T02:26:06.880Z,28.72
2022-10-06T02:29:12.600Z,29.13
2022-10-06T02:32:16.995Z,29.15
2022-10-06T02:35:22.195Z,29.22
2022-10-06T02:38:28.128Z,28.89
2022-10-06T02:41:33.542Z,29.06
2022-10-06T02:44:41.057Z,28.72
2022-10-06T02:47:45.777Z,27.04
2022-10-06T02:50:59.516Z,28.67
2022-10-06T02:54:04.137Z,29.30
2022-10-06T02:57:09.007Z,29.73
2022-10-06T03:00:15.717Z,27.75
2022-10-06T03:03:25.095Z,27.55
2022-10-06T03:06:32.565Z,29.82
2022-10-06T03:09:44.454Z,29.23
2022-10-06T03:12:49.330Z,29.18
2022-10-06T03:15:54.400Z,27.92
2022-10-06T03:19:00.088Z,28.30
2022-10-06T03:22:07.156Z,29.30
2022-10-06T03:25:22.559Z,29.26
2022-10-06T03:28:28.874Z,29.42
2022-10-06T03:31:34.493Z,29.37
2022-10-06T03:34:40.027Z,29.00
2022-10-06T03:37:48.368Z,28.84
2022-10-06T03:40:53.115Z,28.63
2022-10-06T03:44:00.318Z,28.79
2022-10-06T03:47:05.405Z,29.16
2022-10-06T03:50:11.692Z,29.17
2022-10-06T03:53:16.350Z,29.36
2022-10-06T03:56:34.185Z,27.97
2022-10-06T03:59:38.899Z,28.32
2022-10-06T04:02:44.020Z,27.79
2022-10-06T04:05:57.148Z,28.52
2022-10-06T04:09:03.555Z,28.52
2022-10-06T04:12:08.133Z,29.00
2022-10-06T04:15:14.611Z,29.11
2022-10-06T04:18:19.988Z,28.38
2022-10-06T04:21:26.041Z,28.65
2022-10-06T04:24:31.770Z,27.97
2022-10-06T04:27:36.287Z,28.00
2022-10-06T04:30:44.838Z,27.35
2022-10-06T04:33:53.097Z,28.30
2022-10-06T04:36:58.771Z,28.38
2022-10-06T04:40:03.721Z,27.73
2022-10-06T04:43:10.198Z,27.60
2022-10-06T04:46:37.778Z,26.16
2022-10-06T04:49:42.261Z,27.32
2022-10-06T04:52:47.339Z,28.30
2022-10-06T04:56:11.539Z,26.94
2022-10-06T04:59:16.410Z,28.29
2022-10-06T05:02:23.579Z,29.16
2022-10-06T05:05:30.766Z,27.96
2022-10-06T05:08:36.903Z,27.38
2022-10-06T05:11:41.309Z,26.47
2022-10-06T05:14:49.111Z,27.39
2022-10-06T05:17:54.188Z,26.31
2022-10-06T05:21:06.621Z,26.07
2022-10-06T05:24:11.674Z,26.62
2022-10-06T05:27:16.549Z,27.02
2022-10-06T05:30:21.151Z,27.13
2022-10-06T05:33:27.384Z,26.60
2022-10-06T05:36:34.667Z,27.27
2022-10-06T05:39:40.293Z,27.57
2022-10-06T05:42:45.293Z,28.44
2022-10-06T05:45:58.748Z,27.79
2022-10-06T05:49:09.998Z,29.02
2022-10-06T05:52:17.485Z,28.75
2022-10-06T05:55:22.382Z,28.93
2022-10-06T05:58:27.844Z,29.05
2022-10-06T06:01:41.659Z,29.02
2022-10-06T06:04:56.759Z,28.89
2022-10-06T06:08:01.798Z,28.12
2022-10-06T06:11:08.592Z,27.78
2022-10-06T06:14:20.824Z,28.23
2022-10-06T06:17:25.817Z,28.66
2022-10-06T06:20:30.336Z,28.71
2022-10-06T06:23:40.880Z,28.57
2022-10-06T06:26:45.245Z,27.83
2022-10-06T06:29:50.419Z,26.78
2022-10-06T06:32:58.969Z,28.20
2022-10-06T06:36:04.875Z,27.94
2022-10-06T06:39:12.299Z,28.53
2022-10-06T06:42:17.656Z,29.47
2022-10-06T06:45:25.084Z,28.23
2022-10-06T06:48:38.794Z,29.39
2022-10-06T06:51:46.013Z,29.35
2022-10-06T06:54:52.590Z,29.92
2022-10-06T06:57:57.145Z,30.37
2022-10-06T07:01:09.303Z,29.87
2022-10-06T07:04:16.878Z,30.43
2022-10-06T07:07:23.753Z,30.96
2022-10-06T07:10:29.171Z,30.86
2022-10-06T07:13:33.773Z,30.89
2022-10-06T07:16:56.612Z,30.74
2022-10-06T07:20:20.891Z,30.79
2022-10-06T07:23:44.382Z,30.74
2022-10-06T07:26:53.401Z,29.84
2022-10-06T07:30:00.133Z,29.76
2022-10-06T07:33:05.951Z,29.80
2022-10-06T07:36:12.101Z,29.31
2022-10-06T07:39:17.112Z,30.60
2022-10-06T07:42:22.403Z,31.13
2022-10-06T07:45:47.748Z,31.01
2022-10-06T07:48:59.372Z,30.86
2022-10-06T07:52:04.199Z,31.29
2022-10-06T07:55:10.002Z,31.91
2022-10-06T07:58:39.676Z,31.41
2022-10-06T08:01:47.005Z,31.54
2022-10-06T08:04:51.723Z,31.91
2022-10-06T08:07:57.888Z,32.29
2022-10-06T08:11:02.503Z,32.45
2022-10-06T08:14:07.268Z,32.79
2022-10-06T08:17:12.128Z,32.84
2022-10-06T08:20:19.221Z,33.41
2022-10-06T08:23:23.876Z,33.49
2022-10-06T08:26:31.873Z,33.58
2022-10-06T08:29:36.752Z,33.85
2022-10-06T08:32:43.699Z,34.15
2022-10-06T08:35:51.051Z,34.82
2022-10-06T08:38:55.879Z,34.88
2022-10-06T08:42:00.621Z,34.98
2022-10-06T08:45:12.104Z,36.60
2022-10-06T08:48:30.125Z,37.17
2022-10-06T08:51:50.114Z,36.49
2022-10-06T08:55:03.293Z,36.89
2022-10-06T08:58:38.566Z,40.33
2022-10-06T09:01:52.371Z,37.41
2022-10-06T09:05:00.236Z,39.24
2022-10-06T09:08:14.961Z,39.68
2022-10-06T09:11:40.916Z,40.57
2022-10-06T09:14:53.034Z,39.89
2022-10-06T09:18:23.667Z,42.04
2022-10-06T09:21:46.485Z,43.20
2022-10-06T09:24:58.207Z,42.99
2022-10-06T09:28:04.324Z,42.55
2022-10-06T09:31:56.993Z,44.02
2022-10-06T09:35:01.822Z,42.65
2022-10-06T09:38:09.229Z,42.61
2022-10-06T09:41:14.840Z,42.33
2022-10-06T09:44:26.552Z,43.03
2022-10-06T09:47:34.086Z,43.15
2022-10-06T09:50:39.071Z,44.12
2022-10-06T09:54:11.381Z,43.74
2022-10-06T09:57:28.653Z,45.74
2022-10-06T10:00:40.432Z,44.11
2022-10-06T10:07:32.085Z,47.61
2022-10-06T10:10:37.713Z,45.79
2022-10-06T10:13:46.272Z,46.99
2022-10-06T10:16:53.364Z,47.26
2022-10-06T10:20:03.601Z,48.14
2022-10-06T10:23:24.132Z,48.77
2022-10-06T10:27:14.278Z,48.34
2022-10-06T10:30:19.437Z,46.15
2022-10-06T10:33:59.524Z,50.26
2022-10-06T10:37:25.207Z,48.59
2022-10-06T10:40:32.049Z,49.25
2022-10-06T10:43:52.179Z,48.82
2022-10-06T10:47:23.021Z,49.49
2022-10-06T10:50:30.593Z,51.21
2022-10-06T10:53:52.465Z,51.88
2022-10-06T10:56:57.320Z,51.88
2022-10-06T11:00:08.491Z,52.44
2022-10-06T11:03:14.017Z,52.56
2022-10-06T11:06:28.788Z,53.82
2022-10-06T11:09:36.494Z,53.62
2022-10-06T11:12:50.237Z,52.05
2022-10-06T11:16:13.040Z,53.63
2022-10-06T11:19:36.337Z,54.23
2022-10-06T11:23:25.626Z,55.27
2022-10-06T11:27:00.508Z,54.49
2022-10-06T11:30:27.340Z,55.56
2022-10-06T11:33:44.585Z,54.33
2022-10-06T11:37:10.817Z,55.82
2022-10-06T11:40:53.498Z,55.71
2022-10-06T11:44:01.153Z,52.92
2022-10-06T11:47:35.369Z,57.36
2022-10-06T11:50:45.454Z,55.35
2022-10-06T11:53:53.503Z,54.88
2022-10-06T11:56:58.030Z,54.80
2022-10-06T12:00:18.258Z,56.30
2022-10-06T12:03:34.498Z,57.08
2022-10-06T12:06:47.808Z,56.48
2022-10-06T12:09:53.331Z,56.77
2022-10-06T12:13:38.542Z,61.37
2022-10-06T12:20:21.954Z,57.70
2022-10-06T12:23:30.460Z,56.70
2022-10-06T12:27:16.131Z,57.51
2022-10-06T12:30:50.477Z,56.83
2022-10-06T12:33:55.168Z,57.37
2022-10-06T12:37:54.709Z,60.82
2022-10-06T12:41:00.544Z,58.86
2022-10-06T12:44:23.247Z,59.62
2022-10-06T12:47:41.489Z,61.48
2022-10-06T12:50:46.530Z,59.89
2022-10-06T12:54:02.092Z,61.10
2022-10-06T12:57:17.833Z,61.12
2022-10-06T13:00:35.452Z,60.46
2022-10-06T13:03:40.483Z,59.71
2022-10-06T13:06:51.181Z,58.93
2022-10-06T13:10:15.083Z,58.06
2022-10-06T13:13:25.535Z,59.31
2022-10-06T13:16:34.061Z,59.11
2022-10-06T13:19:39.682Z,59.90
2022-10-06T13:22:44.149Z,63.87
2022-10-06T13:25:58.767Z,62.05
2022-10-06T13:29:03.585Z,61.53
2022-10-06T13:32:19.684Z,62.63
2022-10-06T13:35:27.223Z,60.41
2022-10-06T13:38:35.809Z,61.49
2022-10-06T13:41:53.688Z,61.99
2022-10-06T13:45:03.796Z,61.61
2022-10-06T13:48:18.899Z,62.18
2022-10-06T13:51:30.569Z,62.05
2022-10-06T13:54:47.582Z,62.53
2022-10-06T13:58:13.485Z,62.05
2022-10-06T14:01:28.495Z,62.15
2022-10-06T14:04:35.937Z,61.91
2022-10-06T14:07:46.539Z,62.83
2022-10-06T14:10:56.284Z,62.75
2022-10-06T14:14:03.499Z,61.57
2022-10-06T14:17:19.196Z,61.43
2022-10-06T14:20:46.779Z,62.25
2022-10-06T14:23:55.236Z,62.95
2022-10-06T14:27:05.472Z,63.42
2022-10-06T14:30:11.913Z,63.30
2022-10-06T14:33:17.123Z,63.55
2022-10-06T14:36:29.762Z,64.71
2022-10-06T14:39:36.583Z,62.64
2022-10-06T14:42:41.072Z,64.32
2022-10-06T14:45:46.125Z,65.25
2022-10-06T14:48:52.081Z,66.19
2022-10-06T14:51:57.656Z,65.16
2022-10-06T14:55:02.318Z,63.45
2022-10-06T14:58:07.333Z,64.72
2022-10-06T15:01:18.096Z,64.89
2022-10-06T15:04:25.794Z,65.00
2022-10-06T15:07:48.857Z,65.16
2022-10-06T15:10:54.283Z,64.55
2022-10-06T15:14:00.003Z,64.75
2022-10-06T15:17:04.816Z,63.87
2022-10-06T15:20:10.680Z,63.89
2022-10-06T15:23:17.776Z,66.92
2022-10-06T15:26:40.406Z,64.75
2022-10-06T15:29:45.542Z,64.40
2022-10-06T15:32:50.653Z,64.01
2022-10-06T15:36:18.220Z,65.89
2022-10-06T15:39:25.361Z,64.50
2022-10-06T15:42:30.033Z,64.53
2022-10-06T15:45:35.078Z,65.28
2022-10-06T15:48:44.170Z,65.95
2022-10-06T15:51:52.245Z,64.84
2022-10-06T15:54:58.966Z,64.16
2022-10-06T15:58:03.476Z,66.59
2022-10-06T16:01:11.746Z,67.05
2022-10-06T16:04:26.727Z,67.50
2022-10-06T16:07:33.494Z,66.46
2022-10-06T16:10:38.195Z,65.90
2022-10-06T16:13:42.728Z,64.67
2022-10-06T16:16:48.944Z,66.62
2022-10-06T16:19:53.500Z,67.34
2022-10-06T16:22:57.928Z,65.77
2022-10-06T16:26:05.490Z,68.04
2022-10-06T16:29:10.473Z,66.92
2022-10-06T16:32:14.954Z,66.51
2022-10-06T16:35:19.475Z,66.29
2022-10-06T16:38:24.601Z,65.17
2022-10-06T16:41:29.134Z,66.47
2022-10-06T16:44:33.720Z,66.40
2022-10-06T16:47:38.214Z,67.77
2022-10-06T16:50:42.462Z,67.77
2022-10-06T16:54:01.080Z,70.16
2022-10-06T16:57:07.602Z,72.31
2022-10-06T17:00:13.130Z,72.68
2022-10-06T17:03:17.767Z,71.57
2022-10-06T17:06:22.557Z,70.88
2022-10-06T17:09:28.999Z,70.35
2022-10-06T17:12:33.677Z,68.72
2022-10-06T17:15:38.252Z,73.18
2022-10-06T17:18:43.363Z,72.76
2022-10-06T17:21:51.540Z,72.66
2022-10-06T17:24:57.572Z,70.69
2022-10-06T17:28:02.161Z,69.17
2022-10-06T17:31:07.397Z,71.31
2022-10-06T17:34:18.342Z,71.28
2022-10-06T17:37:24.695Z,71.44
2022-10-06T17:40:29.206Z,71.01
2022-10-06T17:43:38.778Z,71.91
2022-10-06T17:46:45.393Z,69.67
2022-10-06T17:49:53.569Z,69.39
2022-10-06T17:53:00.202Z,68.95
2022-10-06T17:56:10.039Z,69.52
2022-10-06T17:59:20.770Z,69.24
2022-10-06T18:02:25.336Z,67.86
2022-10-06T18:05:32.955Z,69.54
2022-10-06T18:08:43.314Z,69.40
2022-10-06T18:11:55.872Z,68.54
2022-10-06T18:15:00.220Z,69.75
2022-10-06T18:18:05.673Z,69.81
2022-10-06T18:21:11.464Z,70.16
2022-10-06T18:24:17.361Z,70.64
2022-10-06T18:27:24.931Z,70.76
2022-10-06T18:30:29.605Z,69.28
2022-10-06T18:36:59.030Z,70.34
2022-10-06T18:40:06.985Z,69.79
2022-10-06T18:43:11.910Z,70.18
2022-10-06T18:46:36.737Z,70.01
2022-10-06T18:49:41.123Z,69.54
2022-10-06T18:52:45.540Z,69.60
2022-10-06T18:55:53.556Z,69.95
2022-10-06T18:58:59.910Z,69.75
2022-10-06T19:02:05.969Z,69.95
2022-10-06T19:05:10.756Z,70.26
2022-10-06T19:08:15.289Z,70.39
2022-10-06T19:11:38.361Z,70.38
2022-10-06T19:14:48.067Z,68.58
2022-10-06T19:17:52.583Z,69.72
2022-10-06T19:20:57.400Z,69.65
2022-10-06T19:24:06.318Z,69.98
2022-10-06T19:27:13.596Z,69.88
2022-10-06T19:30:23.832Z,70.72
2022-10-06T19:33:28.699Z,71.11
2022-10-06T19:36:33.704Z,71.99
2022-10-06T19:39:43.555Z,72.14
2022-10-06T19:42:48.271Z,71.23
2022-10-06T19:45:59.370Z,70.75
2022-10-06T19:49:06.569Z,70.02
2022-10-06T19:52:13.382Z,70.44
2022-10-06T19:55:19.007Z,71.13
2022-10-06T19:58:23.876Z,74.26
2022-10-06T20:01:33.077Z,72.99
2022-10-06T20:04:41.328Z,73.23
2022-10-06T20:07:47.299Z,72.93
2022-10-06T20:10:52.036Z,71.93
2022-10-06T20:13:57.143Z,71.79
2022-10-06T20:17:02.428Z,72.95
2022-10-06T20:20:07.436Z,73.71
2022-10-06T20:23:11.956Z,72.95
2022-10-06T20:26:19.377Z,72.14
2022-10-06T20:29:26.495Z,72.19
2022-10-06T20:32:30.874Z,73.33
2022-10-06T20:35:35.318Z,72.64
2022-10-06T20:38:59.167Z,73.05
2022-10-06T20:42:04.420Z,73.30
2022-10-06T20:45:09.376Z,72.54
2022-10-06T20:48:15.217Z,71.57
2022-10-06T20:51:24.168Z,72.22
2022-10-06T20:54:35.428Z,71.33
2022-10-06T20:57:41.371Z,71.70
2022-10-06T21:00:45.853Z,71.62
2022-10-06T21:03:52.485Z,71.95
2022-10-06T21:06:57.887Z,71.50
2022-10-06T21:10:02.509Z,71.40
2022-10-06T21:13:07.774Z,72.18
2022-10-06T21:16:13.463Z,71.68
2022-10-06T21:19:18.825Z,72.17
2022-10-06T21:22:23.389Z,72.16
2022-10-06T21:25:27.652Z,71.82
2022-10-06T21:28:32.713Z,73.53
2022-10-06T21:31:37.273Z,74.12
2022-10-06T21:34:41.909Z,73.28
2022-10-06T21:37:47.273Z,73.72
2022-10-06T21:40:51.768Z,73.25
2022-10-06T21:43:58.709Z,73.71
2022-10-06T21:47:03.409Z,73.75
2022-10-06T21:50:08.382Z,72.78
2022-10-06T21:53:12.817Z,72.33
2022-10-06T21:56:17.291Z,72.04
2022-10-06T21:59:21.858Z,72.33
2022-10-06T22:02:26.375Z,71.67
2022-10-06T22:05:30.867Z,72.32
2022-10-06T22:08:37.513Z,71.47
2022-10-06T22:11:42.775Z,70.21
2022-10-06T22:14:47.188Z,70.42
2022-10-06T22:17:51.696Z,70.62
2022-10-06T22:20:56.098Z,70.50
2022-10-06T22:24:03.181Z,68.34
2022-10-06T22:27:07.459Z,66.76
2022-10-06T22:30:12.486Z,61.48
2022-10-06T22:33:17.149Z,63.11
2022-10-06T22:36:21.534Z,61.28
2022-10-06T22:39:26.066Z,60.81
2022-10-06T22:42:30.452Z,57.78
2022-10-06T22:45:34.799Z,60.11
2022-10-06T22:48:40.097Z,57.76
2022-10-06T22:51:44.619Z,57.53
2022-10-06T22:54:49.201Z,57.01
2022-10-06T22:57:53.725Z,56.16
2022-10-06T23:00:58.329Z,55.88
2022-10-06T23:04:02.837Z,57.09
2022-10-06T23:07:07.389Z,57.03
2022-10-06T23:10:11.816Z,56.29
2022-10-06T23:13:16.227Z,57.89
2022-10-06T23:16:21.875Z,56.37
2022-10-06T23:19:26.278Z,56.87
2022-10-06T23:22:30.863Z,57.56
2022-10-06T23:25:39.437Z,57.24
2022-10-06T23:28:44.319Z,56.00
2022-10-06T23:31:48.949Z,56.74
2022-10-06T23:34:53.860Z,55.94
2022-10-06T23:37:58.245Z,56.09
2022-10-06T23:41:03.275Z,55.93
2022-10-06T23:44:07.635Z,55.41
2022-10-06T23:47:12.144Z,53.70
2022-10-06T23:50:16.673Z,53.73
2022-10-06T23:53:21.098Z,52.84
2022-10-06T23:56:26.310Z,51.07
2022-10-06T23:59:32.462Z,51.05
